Flight Track Log - Related Links

Times and Time Zones

All times are in EDT time to prevent confusion due to time zone crossing. See the EJA583 flight status page for this flight to view local times or setup timezone preferences in your user account.

Time Position Orientation Groundspeed Altitude Reporting Facility
EDT Latitude Longitude Course Direction KTS MPH feet Rate Location/Type
Sun 11:40:39 AM 39.6000 -104.8500 303° West 175 201 7,000  Level Denver TRACON
Sun 11:41:39 AM 39.6333 -104.9167 303° West 260 299 8,000 1,000 Climbing Denver TRACON
Sun 11:42:39 AM 39.6667 -105.0167 293° West 287 330 9,000 1,750 Climbing Denver TRACON
Sun 11:43:39 AM 39.7000 -105.1000 297° West 287 330 11,500 2,650 Climbing Denver TRACON
Sun 11:44:39 AM 39.7500 -105.1833 308° West 290 334 14,300 2,750 Climbing Denver TRACON
Sun 11:45:39 AM 39.7833 -105.2667 298° West 291 335 17,000 2,267 Climbing Denver TRACON
Sun 11:46:09 AM 39.7933 -105.3017 290° West 289 333 17,700 645 Climbing Denver Center
Sun 11:47:12 AM 39.8567 -105.4267 303° West 346 398 18,000 144 Climbing Denver Center
Sun 11:48:14 AM 39.9139 -105.5569 300° West 387 445 18,000  Level Denver Center
Sun 11:49:16 AM 39.9658 -105.6839 298° West 398 458 18,000  Level Denver Center
Sun 11:50:17 AM 39.9611 -105.7969 267° West 371 427 18,000  Level Denver Center
Sun 11:51:20 AM 39.9683 -105.9464 274° West 340 391 18,000 -48 Level Denver Center
Sun 11:52:22 AM 39.9736 -106.0706 273° West 340 391 17,900 -435 Descending Denver Center
Sun 11:53:24 AM 39.9258 -106.1906 243° Southwest 367 422 17,100 -919 Descending Denver Center
Sun 11:54:26 AM 39.8744 -106.3072 240° Southwest 374 430 16,000 -532 Descending Denver Center
Sun 11:55:28 AM 39.8292 -106.4106 240° Southwest 343 395 16,000 -435 Level Denver Center
Sun 11:56:30 AM 39.7950 -106.4883 240° Southwest 318 366 15,100 -1,597 Descending Denver Center
Sun 11:57:32 AM 39.7353 -106.6161 239° Southwest 310 357 12,700 -2,064 Descending Denver Center
Sun 11:58:35 AM 39.6853 -106.6936 230° Southwest 286 329 10,800 -1,728 Descending Denver Center
Sun 11:59:37 AM 39.6575 -106.7733 246° West 242 278 9,100 -1,452 Descending Denver Center
Sun 12:00:39 PM 39.6506 -106.8458 263° West 216 249 7,800 -1,258 Descending Denver Center
Sun 12:01:41 PM 39.6444 -106.8989 262° West 173 199 6,500 -1,258 Descending Denver Center

Login

Don't have an account? Register now (free) for customized features, flight alerts, and more!